Time;durP1;ratioP1;P1;durP2;ratioP2;P2;SDS_P1;SDS_P2;PMS_P1;PMS_P2;Temp;Humidity;BMP_temperature;BMP_pressure;BME280_temperature;BME280_humidity;BME280_pressure;Samples;Min_cycle;Max_cycle;Signal;HPM_P1;HPM_P2
2023/03/13 00:01:25;;;;;;;21.55;5.63;;;10.20;99.90;;;;;;5077017;28;20029;-64
2023/03/13 00:03:51;;;;;;;26.08;6.78;;;10.20;99.90;;;;;;5077060;28;20036;-64
2023/03/13 00:06:16;;;;;;;22.27;4.88;;;10.20;99.90;;;;;;5076912;28;20111;-64
2023/03/13 00:08:43;;;;;;;28.55;5.97;;;10.20;99.90;;;;;;5076304;28;20032;-64
2023/03/13 00:11:11;;;;;;;26.58;5.72;;;10.20;99.90;;;;;;5076696;28;20028;-64
2023/03/13 00:13:37;;;;;;;29.10;5.32;;;10.30;99.90;;;;;;5076492;28;20021;-64
2023/03/13 00:16:06;;;;;;;31.08;5.90;;;10.30;99.90;;;;;;5076404;28;20036;-64
2023/03/13 00:18:31;;;;;;;24.42;4.80;;;10.20;99.90;;;;;;5076421;28;20035;-64
2023/03/13 00:21:00;;;;;;;26.15;4.78;;;10.20;99.90;;;;;;5076578;28;20029;-64
2023/03/13 00:23:26;;;;;;;23.05;5.45;;;10.30;99.90;;;;;;5076381;28;20035;-65
2023/03/13 00:25:59;;;;;;;26.98;5.32;;;10.30;99.90;;;;;;5076501;28;20111;-64
2023/03/13 00:28:28;;;;;;;26.98;5.75;;;10.30;99.90;;;;;;5076100;28;20080;-64
2023/03/13 00:31:02;;;;;;;26.35;5.78;;;10.20;99.90;;;;;;5076130;28;20074;-64
2023/03/13 00:33:27;;;;;;;22.80;5.75;;;10.20;99.90;;;;;;5075818;28;20025;-64
2023/03/13 00:36:01;;;;;;;21.20;5.55;;;10.30;99.90;;;;;;5076187;28;20031;-64
2023/03/13 00:38:28;;;;;;;31.60;5.85;;;10.40;99.90;;;;;;5076204;28;20052;-64
2023/03/13 00:41:11;;;;;;;22.55;5.43;;;10.40;99.90;;;;;;5076231;28;20428;-64
2023/03/13 00:43:37;;;;;;;23.40;5.68;;;10.50;99.90;;;;;;5075812;28;20024;-64
2023/03/13 00:46:03;;;;;;;22.20;5.47;;;10.40;99.90;;;;;;5076122;28;20083;-64
2023/03/13 00:48:30;;;;;;;20.10;4.80;;;10.50;99.90;;;;;;5075861;28;20036;-64
2023/03/13 00:50:56;;;;;;;25.95;5.03;;;10.50;99.90;;;;;;5076045;28;20543;-65
2023/03/13 00:53:22;;;;;;;36.50;6.20;;;10.50;99.90;;;;;;5075695;28;20052;-64
2023/03/13 00:56:06;;;;;;;20.13;5.10;;;10.50;99.90;;;;;;5075764;28;20036;-64
2023/03/13 00:58:35;;;;;;;24.15;5.60;;;10.50;99.90;;;;;;5075840;28;20028;-64
2023/03/13 01:01:23;;;;;;;22.15;4.95;;;10.50;99.90;;;;;;5075417;28;20537;-64
2023/03/13 01:03:55;;;;;;;23.92;4.93;;;10.50;99.90;;;;;;5075256;28;20036;-64
2023/03/13 01:06:25;;;;;;;18.33;4.45;;;10.70;99.90;;;;;;5075542;28;20028;-64
2023/03/13 01:08:51;;;;;;;27.27;5.28;;;10.70;99.90;;;;;;5075656;28;20037;-64
2023/03/13 01:11:19;;;;;;;26.58;4.88;;;10.60;99.90;;;;;;5075506;28;20221;-64
2023/03/13 01:13:45;;;;;;;21.98;4.63;;;10.60;99.90;;;;;;5075515;28;20052;-64
2023/03/13 01:16:14;;;;;;;26.17;5.50;;;10.50;99.90;;;;;;5075543;28;20506;-64
2023/03/13 01:18:43;;;;;;;20.98;4.78;;;10.50;99.90;;;;;;5075343;28;20032;-64
2023/03/13 01:21:09;;;;;;;30.70;5.25;;;10.50;99.90;;;;;;5075386;28;20511;-64
2023/03/13 01:23:35;;;;;;;21.27;4.32;;;10.40;99.90;;;;;;5075443;28;20094;-64
2023/03/13 01:26:03;;;;;;;22.30;4.60;;;10.50;99.90;;;;;;5075269;28;20445;-64
2023/03/13 01:28:28;;;;;;;21.75;5.47;;;10.40;99.90;;;;;;5074955;28;20041;-64
2023/03/13 01:30:54;;;;;;;20.08;4.60;;;10.30;99.90;;;;;;5075370;28;20095;-64
2023/03/13 01:33:19;;;;;;;23.85;4.28;;;10.30;99.90;;;;;;5075255;28;20082;-64
2023/03/13 01:35:45;;;;;;;25.35;4.72;;;10.30;99.90;;;;;;5075157;28;20028;-64
2023/03/13 01:38:10;;;;;;;26.10;5.43;;;10.20;99.90;;;;;;5074989;28;20039;-64
2023/03/13 01:40:46;;;;;;;28.75;5.28;;;10.20;99.90;;;;;;5075163;28;20072;-64
2023/03/13 01:43:22;;;;;;;25.40;5.07;;;10.20;99.90;;;;;;5074642;28;20043;-64
2023/03/13 01:45:59;;;;;;;24.13;4.43;;;10.20;99.90;;;;;;5074795;28;20077;-64
2023/03/13 01:48:47;;;;;;;26.95;4.75;;;10.30;99.90;;;;;;5074675;28;20169;-64
2023/03/13 01:51:21;;;;;;;31.88;5.57;;;10.30;99.90;;;;;;5074511;28;20493;-64
2023/03/13 01:53:53;;;;;;;18.90;4.65;;;10.30;99.90;;;;;;5074481;28;20478;-64
2023/03/13 01:56:26;;;;;;;22.38;5.68;;;10.30;99.90;;;;;;5074722;28;20025;-64
2023/03/13 01:58:54;;;;;;;22.58;5.18;;;10.30;99.90;;;;;;5074862;28;20029;-64
2023/03/13 02:01:20;;;;;;;30.02;5.57;;;10.30;99.90;;;;;;5074596;28;20582;-64
2023/03/13 02:03:48;;;;;;;24.25;4.40;;;10.30;99.90;;;;;;5074422;28;20024;-64
2023/03/13 02:06:13;;;;;;;22.42;4.50;;;10.30;99.90;;;;;;5074199;28;20031;-64
2023/03/13 02:08:48;;;;;;;27.10;5.00;;;10.30;99.90;;;;;;5074242;28;20452;-64
2023/03/13 02:11:52;;;;;;;26.17;4.85;;;10.30;99.90;;;;;;5073807;28;20020;-64
2023/03/13 02:14:20;;;;;;;25.75;4.75;;;10.40;99.90;;;;;;5074374;28;20024;-64
2023/03/13 02:16:50;;;;;;;22.63;4.53;;;10.30;99.90;;;;;;5074357;28;20474;-64
2023/03/13 02:19:29;;;;;;;23.33;4.68;;;10.20;99.90;;;;;;5074090;28;20116;-64
2023/03/13 02:22:12;;;;;;;21.92;4.88;;;10.20;99.90;;;;;;5074372;28;20074;-64
2023/03/13 02:24:50;;;;;;;29.05;5.07;;;10.10;99.90;;;;;;5074188;28;20033;-64
2023/03/13 02:27:16;;;;;;;26.40;5.13;;;10.10;99.90;;;;;;5073607;28;20537;-64
2023/03/13 02:29:42;;;;;;;29.08;4.90;;;10.10;99.90;;;;;;5074113;28;20047;-64
2023/03/13 02:32:08;;;;;;;25.63;5.18;;;10.10;99.90;;;;;;5074059;28;20103;-64
2023/03/13 02:34:35;;;;;;;24.80;4.97;;;10.00;99.90;;;;;;5074025;28;20488;-64
2023/03/13 02:37:04;;;;;;;25.92;4.85;;;10.00;99.90;;;;;;5073669;28;20032;-64
2023/03/13 02:39:31;;;;;;;23.05;4.70;;;10.00;99.90;;;;;;5074021;28;20435;-64
2023/03/13 02:41:58;;;;;;;24.35;5.03;;;10.10;99.90;;;;;;5074062;28;20024;-64
2023/03/13 02:44:24;;;;;;;25.58;4.97;;;10.10;99.90;;;;;;5073753;28;20052;-64
2023/03/13 02:46:51;;;;;;;24.45;4.53;;;10.00;99.90;;;;;;5073742;28;20052;-64
2023/03/13 02:49:22;;;;;;;23.58;4.68;;;10.00;99.90;;;;;;5073529;28;20035;-64
2023/03/13 02:51:48;;;;;;;27.00;5.50;;;9.90;99.90;;;;;;5073730;28;20070;-64
2023/03/13 02:54:20;;;;;;;20.60;4.63;;;10.00;99.90;;;;;;5073286;28;20024;-63
2023/03/13 02:56:49;;;;;;;17.33;4.63;;;10.00;99.90;;;;;;5073684;28;20035;-63
2023/03/13 02:59:15;;;;;;;21.63;4.70;;;10.00;99.90;;;;;;5073231;28;20021;-63
2023/03/13 03:01:40;;;;;;;27.35;5.50;;;10.00;99.90;;;;;;5073435;28;20029;-63
2023/03/13 03:04:06;;;;;;;23.13;5.20;;;9.90;99.90;;;;;;5073649;28;20033;-64
2023/03/13 03:06:31;;;;;;;24.23;5.35;;;9.90;99.90;;;;;;5073574;28;20032;-64
2023/03/13 03:08:57;;;;;;;20.63;5.15;;;9.90;99.90;;;;;;5073340;28;20036;-64
2023/03/13 03:11:23;;;;;;;19.00;4.68;;;9.90;99.90;;;;;;5073014;28;20027;-64
2023/03/13 03:13:48;;;;;;;23.33;4.70;;;10.00;99.90;;;;;;5073475;28;20031;-63
2023/03/13 03:16:17;;;;;;;17.58;4.70;;;9.90;99.90;;;;;;5073410;28;20028;-63
2023/03/13 03:18:43;;;;;;;24.17;4.65;;;9.90;99.90;;;;;;5073207;28;20398;-63
2023/03/13 03:21:09;;;;;;;20.85;4.45;;;9.90;99.90;;;;;;5073260;28;20024;-64
2023/03/13 03:23:35;;;;;;;20.02;5.25;;;9.90;99.90;;;;;;5072929;28;20058;-64
2023/03/13 03:26:02;;;;;;;20.52;4.72;;;9.90;99.90;;;;;;5073419;28;20025;-64
2023/03/13 03:28:28;;;;;;;23.13;4.78;;;9.90;99.90;;;;;;5072920;28;20056;-65
2023/03/13 03:30:54;;;;;;;21.13;4.82;;;9.90;99.90;;;;;;5073318;28;20097;-64
2023/03/13 03:33:21;;;;;;;19.63;4.47;;;9.90;99.90;;;;;;5073092;28;20375;-63
2023/03/13 03:35:46;;;;;;;17.67;4.78;;;10.00;99.90;;;;;;5073191;28;20027;-64
2023/03/13 03:38:12;;;;;;;19.13;5.00;;;9.90;99.90;;;;;;5073080;28;20385;-63
2023/03/13 03:40:37;;;;;;;19.83;4.55;;;9.90;99.90;;;;;;5073176;28;20504;-63
2023/03/13 03:43:03;;;;;;;15.63;3.85;;;10.00;99.90;;;;;;5073016;28;20052;-63
2023/03/13 03:45:28;;;;;;;15.02;4.00;;;10.00;99.90;;;;;;5073228;28;20528;-64
2023/03/13 03:47:54;;;;;;;13.13;3.78;;;10.00;99.90;;;;;;5072804;28;20051;-64
2023/03/13 03:50:20;;;;;;;11.50;3.40;;;10.10;99.90;;;;;;5073113;28;20086;-64
2023/03/13 03:52:45;;;;;;;13.98;3.97;;;10.10;99.90;;;;;;5072917;28;20033;-64
2023/03/13 03:55:11;;;;;;;13.30;3.03;;;10.10;99.90;;;;;;5073082;28;20087;-64
2023/03/13 03:57:36;;;;;;;14.23;3.20;;;10.10;99.90;;;;;;5073064;28;20037;-64
2023/03/13 04:00:04;;;;;;;10.00;3.03;;;10.20;99.90;;;;;;5053036;28;20029;-64
2023/03/13 04:02:29;;;;;;;12.43;3.35;;;10.20;99.90;;;;;;5052851;28;20116;-64
2023/03/13 04:04:55;;;;;;;6.88;2.65;;;10.20;99.90;;;;;;5052883;28;20108;-64
2023/03/13 04:07:20;;;;;;;9.52;2.58;;;10.30;99.90;;;;;;5052838;28;20038;-64
2023/03/13 04:09:46;;;;;;;9.35;2.63;;;10.30;99.90;;;;;;5052710;28;20431;-64
2023/03/13 04:12:11;;;;;;;10.10;3.17;;;10.30;99.90;;;;;;5052524;28;20029;-64
2023/03/13 04:14:37;;;;;;;9.27;2.60;;;10.40;99.90;;;;;;5052855;28;20078;-64
2023/03/13 04:17:02;;;;;;;8.82;2.55;;;10.40;99.90;;;;;;5052808;28;20082;-64
2023/03/13 04:19:28;;;;;;;8.20;2.63;;;10.40;99.90;;;;;;5052951;28;20025;-64
2023/03/13 04:21:53;;;;;;;8.07;2.53;;;10.50;99.90;;;;;;5052504;28;20025;-64
2023/03/13 04:24:19;;;;;;;9.45;2.95;;;10.40;99.90;;;;;;5052570;28;20033;-64
2023/03/13 04:26:44;;;;;;;9.70;2.65;;;10.50;99.90;;;;;;5052334;28;20032;-65
2023/03/13 04:29:10;;;;;;;10.52;3.42;;;10.50;99.90;;;;;;5052402;28;20033;-64
2023/03/13 04:31:35;;;;;;;6.00;2.60;;;10.50;99.90;;;;;;5052585;28;20025;-64
2023/03/13 04:34:01;;;;;;;9.38;2.72;;;10.50;99.90;;;;;;5052830;28;20108;-64
2023/03/13 04:36:26;;;;;;;5.47;2.15;;;10.60;99.90;;;;;;5055687;28;20036;-64
2023/03/13 04:38:52;;;;;;;7.70;2.72;;;10.60;99.90;;;;;;5056026;28;20064;-64
2023/03/13 04:41:17;;;;;;;7.22;2.63;;;10.60;99.90;;;;;;5056155;28;20083;-64
2023/03/13 04:43:43;;;;;;;11.25;3.10;;;10.70;99.90;;;;;;5056224;28;20042;-64
2023/03/13 04:46:08;;;;;;;10.80;2.58;;;10.60;99.90;;;;;;5056159;28;20045;-64
2023/03/13 04:48:34;;;;;;;8.60;2.72;;;10.70;99.90;;;;;;5055863;28;20063;-64
2023/03/13 04:51:00;;;;;;;12.10;2.88;;;10.70;99.90;;;;;;5055666;28;20029;-64
2023/03/13 04:53:25;;;;;;;7.45;2.42;;;10.70;99.90;;;;;;5055979;28;20541;-64
2023/03/13 04:55:51;;;;;;;5.43;2.72;;;10.80;99.90;;;;;;5055751;28;20076;-64
2023/03/13 04:58:16;;;;;;;9.65;2.80;;;10.80;99.90;;;;;;5055891;28;20068;-64
2023/03/13 05:00:42;;;;;;;7.95;2.80;;;10.90;99.90;;;;;;5055673;28;20029;-64
2023/03/13 05:03:07;;;;;;;5.97;2.58;;;10.80;99.90;;;;;;5055802;28;20029;-64
2023/03/13 05:05:34;;;;;;;5.10;2.40;;;10.90;99.90;;;;;;5055710;28;20056;-65
2023/03/13 05:08:00;;;;;;;6.72;2.83;;;10.90;99.90;;;;;;5055547;28;20029;-65
2023/03/13 05:10:26;;;;;;;7.93;2.65;;;10.90;99.90;;;;;;5055683;28;20054;-64
2023/03/13 05:12:52;;;;;;;4.93;1.80;;;10.90;99.90;;;;;;5055296;28;20021;-65
2023/03/13 05:15:17;;;;;;;8.85;2.40;;;10.90;99.90;;;;;;5055645;28;20033;-65
2023/03/13 05:17:43;;;;;;;6.70;2.50;;;10.90;99.90;;;;;;5055416;28;20025;-65
2023/03/13 05:20:10;;;;;;;4.75;1.70;;;11.00;99.90;;;;;;5055346;28;20032;-64
2023/03/13 05:22:36;;;;;;;8.25;2.60;;;11.00;99.90;;;;;;5055295;28;20029;-64
2023/03/13 05:25:02;;;;;;;8.63;2.55;;;11.00;99.90;;;;;;5055280;28;20052;-64
2023/03/13 05:27:28;;;;;;;5.07;2.13;;;11.00;99.90;;;;;;5055023;28;20045;-64
2023/03/13 05:29:54;;;;;;;7.05;2.58;;;11.00;99.90;;;;;;5055048;28;20425;-65
2023/03/13 05:32:19;;;;;;;6.40;2.70;;;10.90;99.90;;;;;;5055078;28;20045;-64
2023/03/13 05:34:45;;;;;;;7.65;2.78;;;10.90;99.90;;;;;;5055211;28;20029;-64
2023/03/13 05:37:10;;;;;;;6.90;3.03;;;10.90;99.90;;;;;;5055046;28;20074;-64
2023/03/13 05:39:36;;;;;;;5.75;2.80;;;10.90;99.90;;;;;;5054779;28;20025;-64
2023/03/13 05:42:01;;;;;;;6.20;3.00;;;10.90;99.90;;;;;;5055058;28;20536;-65
2023/03/13 05:44:27;;;;;;;5.57;2.83;;;11.00;99.90;;;;;;5055116;28;20053;-64
2023/03/13 05:46:52;;;;;;;6.07;3.15;;;11.00;99.90;;;;;;5054710;28;20104;-65
2023/03/13 05:49:18;;;;;;;7.55;3.45;;;11.00;99.90;;;;;;5054643;28;20025;-64
2023/03/13 05:51:43;;;;;;;6.72;3.70;;;11.00;99.90;;;;;;5054472;28;20021;-65
2023/03/13 05:54:09;;;;;;;8.43;3.50;;;11.00;99.90;;;;;;5054676;28;20035;-64
2023/03/13 05:56:34;;;;;;;7.63;4.00;;;11.10;99.90;;;;;;5054845;28;20086;-64
2023/03/13 05:59:00;;;;;;;7.65;4.20;;;11.20;99.90;;;;;;5054826;28;20029;-64
2023/03/13 06:01:25;;;;;;;8.40;4.40;;;11.20;99.90;;;;;;5054600;28;20029;-65
2023/03/13 06:03:51;;;;;;;8.05;4.05;;;11.30;99.90;;;;;;5054448;28;20032;-64
2023/03/13 06:06:16;;;;;;;7.05;4.70;;;11.30;99.90;;;;;;5054600;28;20076;-65
2023/03/13 06:08:42;;;;;;;7.05;5.20;;;11.20;99.90;;;;;;5054268;28;20159;-65
2023/03/13 06:11:08;;;;;;;10.52;4.88;;;11.30;99.90;;;;;;5054629;28;20036;-65
2023/03/13 06:13:33;;;;;;;8.02;5.55;;;11.30;99.90;;;;;;5054232;28;20048;-65
2023/03/13 06:15:59;;;;;;;7.47;5.50;;;11.30;99.90;;;;;;5054383;28;20037;-64
2023/03/13 06:18:25;;;;;;;14.00;6.43;;;11.30;99.90;;;;;;5054391;28;20033;-64
2023/03/13 06:20:57;;;;;;;10.57;6.80;;;11.30;99.90;;;;;;5052938;28;20095;-64
2023/03/13 06:23:22;;;;;;;9.70;7.00;;;11.30;99.90;;;;;;5054072;28;20035;-65
2023/03/13 06:25:48;;;;;;;11.15;7.35;;;11.30;99.90;;;;;;5054239;28;20036;-65
2023/03/13 06:28:14;;;;;;;10.73;7.60;;;11.20;99.90;;;;;;5053723;28;20049;-65
2023/03/13 06:30:40;;;;;;;9.68;7.00;;;11.30;99.90;;;;;;5054103;28;20039;-65
2023/03/13 06:33:05;;;;;;;8.88;6.50;;;11.30;99.90;;;;;;5054082;28;20029;-65
2023/03/13 06:35:31;;;;;;;10.30;6.47;;;11.30;99.90;;;;;;5053911;28;20375;-66
2023/03/13 06:37:56;;;;;;;8.65;6.30;;;11.30;99.90;;;;;;5053806;28;20025;-65
2023/03/13 06:40:22;;;;;;;9.52;6.28;;;11.40;99.90;;;;;;5053909;28;20040;-64
2023/03/13 06:42:47;;;;;;;8.68;6.30;;;11.40;99.90;;;;;;5053680;28;20025;-65
2023/03/13 06:45:13;;;;;;;7.65;5.97;;;11.40;99.90;;;;;;5053917;28;20017;-65
2023/03/13 06:47:38;;;;;;;8.27;5.72;;;11.50;99.90;;;;;;5053742;28;20061;-64
2023/03/13 06:50:04;;;;;;;7.85;5.63;;;11.50;99.90;;;;;;5053800;28;20025;-64
2023/03/13 06:52:30;;;;;;;10.63;5.63;;;11.60;99.90;;;;;;5053761;28;20387;-64
2023/03/13 06:54:56;;;;;;;10.02;5.00;;;11.60;99.90;;;;;;5053655;28;20024;-65
2023/03/13 06:57:21;;;;;;;5.88;5.05;;;11.60;99.90;;;;;;5053313;28;20037;-65
2023/03/13 06:59:47;;;;;;;5.15;4.45;;;11.60;99.90;;;;;;5053566;28;20039;-65
2023/03/13 07:02:13;;;;;;;7.53;4.60;;;11.70;99.90;;;;;;5053576;28;20065;-65
2023/03/13 07:04:38;;;;;;;8.85;4.13;;;11.80;99.90;;;;;;5053387;28;20021;-65
2023/03/13 07:07:04;;;;;;;8.55;4.00;;;11.80;99.90;;;;;;5053828;28;20124;-65
2023/03/13 07:09:30;;;;;;;7.20;3.65;;;11.80;99.90;;;;;;5053027;28;20033;-65
2023/03/13 07:11:57;;;;;;;5.97;3.72;;;11.90;99.90;;;;;;5053234;28;20017;-65
2023/03/13 07:14:23;;;;;;;6.80;3.80;;;12.00;99.90;;;;;;5053303;28;20025;-64
2023/03/13 07:16:48;;;;;;;8.23;4.07;;;12.10;99.90;;;;;;5053386;28;20544;-65
2023/03/13 07:19:14;;;;;;;7.97;3.35;;;12.20;99.90;;;;;;5053228;28;20040;-64
2023/03/13 07:21:40;;;;;;;4.07;3.17;;;12.30;99.90;;;;;;5053250;28;20498;-64
2023/03/13 07:24:06;;;;;;;5.85;3.15;;;12.40;99.90;;;;;;5053319;28;20122;-65
2023/03/13 07:26:31;;;;;;;5.50;3.47;;;12.40;99.90;;;;;;5052747;28;20094;-66
2023/03/13 07:28:57;;;;;;;4.45;2.67;;;12.40;99.90;;;;;;5052525;28;20033;-65
2023/03/13 07:31:23;;;;;;;6.07;3.00;;;12.50;99.90;;;;;;5052757;28;20047;-65
2023/03/13 07:33:51;;;;;;;3.40;2.55;;;12.60;99.90;;;;;;5052381;28;20037;-65
2023/03/13 07:36:17;;;;;;;2.67;2.40;;;12.60;99.90;;;;;;5052949;28;20052;-64
2023/03/13 07:38:46;;;;;;;4.93;2.58;;;12.80;99.90;;;;;;5052927;28;20079;-64
2023/03/13 07:41:12;;;;;;;4.85;3.00;;;12.90;99.90;;;;;;5053098;28;20091;-65
2023/03/13 07:43:38;;;;;;;3.30;2.47;;;12.90;99.90;;;;;;5052733;28;20399;-65
2023/03/13 07:46:05;;;;;;;3.60;2.30;;;13.00;99.90;;;;;;5053166;28;20036;-65
2023/03/13 07:48:34;;;;;;;6.88;3.00;;;13.10;99.90;;;;;;5052611;28;20061;-65
2023/03/13 07:50:59;;;;;;;6.47;2.55;;;13.10;99.90;;;;;;5053127;28;20029;-65
2023/03/13 07:53:26;;;;;;;5.65;2.25;;;13.20;99.90;;;;;;5052781;28;20391;-65
2023/03/13 07:55:54;;;;;;;7.35;2.85;;;13.20;99.90;;;;;;5052895;28;20068;-65
2023/03/13 07:58:21;;;;;;;5.13;2.80;;;13.30;99.90;;;;;;5052665;28;20033;-65
2023/03/13 08:00:47;;;;;;;5.50;2.92;;;;;;;;;;5052785;28;20029;-64
2023/03/13 08:03:12;;;;;;;5.88;2.45;;;13.40;99.90;;;;;;5052961;28;20387;-63
2023/03/13 08:05:38;;;;;;;6.40;2.50;;;13.60;99.90;;;;;;5040908;28;20029;-64
2023/03/13 08:08:04;;;;;;;4.88;2.50;;;13.70;99.90;;;;;;5047239;28;20045;-63
2023/03/13 08:10:30;;;;;;;8.25;3.00;;;13.70;99.90;;;;;;5041792;28;20100;-64
2023/03/13 08:12:55;;;;;;;3.17;2.63;;;13.70;99.90;;;;;;5054403;28;20033;-64
2023/03/13 08:15:24;;;;;;;5.45;2.40;;;13.80;99.90;;;;;;5055573;28;20033;-64
2023/03/13 08:17:51;;;;;;;5.15;2.63;;;13.80;99.90;;;;;;5056625;28;20390;-64
2023/03/13 08:20:17;;;;;;;7.72;2.60;;;13.80;99.90;;;;;;5055586;28;20033;-64
2023/03/13 08:22:45;;;;;;;4.10;2.55;;;13.90;99.90;;;;;;5054990;28;20400;-66
2023/03/13 08:25:13;;;;;;;4.82;2.40;;;13.80;99.90;;;;;;5055567;28;20040;-66
2023/03/13 08:27:39;;;;;;;5.95;3.00;;;13.80;99.90;;;;;;5055303;28;20123;-64
2023/03/13 08:30:05;;;;;;;4.28;2.20;;;13.80;99.90;;;;;;5048454;28;20060;-64
2023/03/13 08:32:33;;;;;;;3.92;2.38;;;13.80;99.90;;;;;;5036187;28;20039;-64
2023/03/13 08:34:58;;;;;;;5.72;2.72;;;13.80;99.90;;;;;;5036312;28;20025;-63
2023/03/13 08:37:24;;;;;;;5.32;3.10;;;13.90;99.90;;;;;;5036204;28;20108;-63
2023/03/13 08:39:49;;;;;;;6.97;2.55;;;13.90;99.90;;;;;;5040198;28;20040;-64
2023/03/13 08:42:15;;;;;;;5.93;2.60;;;13.90;99.90;;;;;;5056144;28;20053;-64
2023/03/13 08:44:40;;;;;;;10.32;2.90;;;13.90;99.90;;;;;;5054815;28;20033;-64
2023/03/13 08:47:07;;;;;;;7.35;3.20;;;13.80;99.90;;;;;;5046278;28;20029;-64
2023/03/13 08:49:33;;;;;;;6.88;2.72;;;13.80;99.90;;;;;;5055415;28;20029;-64
2023/03/13 08:51:59;;;;;;;11.00;2.90;;;13.90;99.90;;;;;;5055441;28;20134;-65
2023/03/13 08:54:25;;;;;;;6.05;2.50;;;13.90;99.90;;;;;;5055164;28;20027;-64
2023/03/13 08:56:50;;;;;;;7.20;2.78;;;14.00;99.90;;;;;;5055901;28;20024;-64
2023/03/13 08:59:16;;;;;;;10.13;3.00;;;13.90;99.90;;;;;;5054631;28;20044;-64
2023/03/13 09:01:41;;;;;;;5.22;2.65;;;14.00;99.90;;;;;;5055606;28;20398;-63
2023/03/13 09:04:07;;;;;;;6.20;2.78;;;14.00;99.90;;;;;;5053738;28;20082;-64
2023/03/13 09:06:34;;;;;;;6.10;3.00;;;14.00;99.90;;;;;;5055613;28;20033;-64
2023/03/13 09:09:01;;;;;;;6.90;2.83;;;14.10;99.90;;;;;;5054277;28;20099;-64
2023/03/13 09:11:26;;;;;;;7.13;2.92;;;14.10;99.90;;;;;;5055639;28;20395;-64
2023/03/13 09:13:54;;;;;;;8.73;3.25;;;14.10;99.90;;;;;;5040813;28;20063;-64
2023/03/13 09:16:21;;;;;;;7.75;2.92;;;14.10;99.90;;;;;;5035366;28;20506;-64
2023/03/13 09:18:47;;;;;;;11.32;3.42;;;14.20;99.90;;;;;;5041957;28;20040;-63
2023/03/13 09:21:17;;;;;;;7.40;2.88;;;14.20;99.90;;;;;;5054963;28;20021;-65
2023/03/13 09:23:43;;;;;;;9.55;2.90;;;;;;;;;;5056760;28;20398;-63
2023/03/13 09:26:10;;;;;;;8.77;3.20;;;;;;;;;;5060901;28;20033;-64
2023/03/13 09:28:36;;;;;;;9.48;3.35;;;;;;;;;;5054870;28;20052;-64
2023/03/13 09:31:06;;;;;;;8.23;3.65;;;;;;;;;;5054036;28;20410;-64
2023/03/13 09:33:32;;;;;;;7.28;3.28;;;;;;;;;;5055053;28;20025;-64
2023/03/13 09:35:58;;;;;;;6.60;3.10;;;;;;;;;;5040506;28;20032;-64
2023/03/13 09:38:24;;;;;;;7.93;3.67;;;;;;;;;;5035158;28;20029;-65
2023/03/13 09:40:51;;;;;;;9.48;2.78;;;;;;;;;;5047217;28;20064;-64
2023/03/13 09:43:57;;;;;;;6.60;2.92;;;15.30;99.90;;;;;;5055064;28;20033;-64
2023/03/13 09:46:30;;;;;;;8.23;3.00;;;15.30;99.90;;;;;;5053549;28;20349;-64
2023/03/13 09:49:01;;;;;;;7.32;2.50;;;15.50;99.90;;;;;;5053482;28;20533;-64
2023/03/13 09:51:45;;;;;;;7.20;3.30;;;15.60;99.90;;;;;;5051554;28;20133;-64
2023/03/13 09:54:33;;;;;;;7.50;2.75;;;15.70;99.90;;;;;;5054769;28;20525;-65
2023/03/13 09:57:07;;;;;;;9.02;3.70;;;15.60;99.90;;;;;;5053870;28;20529;-65
2023/03/13 10:02:26;;;;;;;9.70;3.38;;;15.70;99.90;;;;;;5070418;28;20383;-63
2023/03/13 10:04:59;;;;;;;8.45;3.45;;;15.50;99.90;;;;;;5070361;28;20513;-64
2023/03/13 10:07:25;;;;;;;8.48;2.60;;;15.50;99.90;;;;;;5070552;28;20479;-65
2023/03/13 10:09:52;;;;;;;7.93;2.63;;;15.90;99.90;;;;;;5070333;28;20025;-64
2023/03/13 10:12:23;;;;;;;8.68;3.15;;;15.90;99.90;;;;;;5070379;28;20382;-64
2023/03/13 10:15:00;;;;;;;6.38;2.63;;;15.90;99.90;;;;;;5073004;28;20048;-64
2023/03/13 10:17:36;;;;;;;12.70;3.55;;;15.80;99.90;;;;;;5090575;28;20032;-64
2023/03/13 10:20:27;;;;;;;7.97;2.78;;;15.70;99.90;;;;;;5090587;28;20024;-64
2023/03/13 10:23:15;;;;;;;5.30;3.17;;;15.70;99.90;;;;;;5090405;28;20390;-65
2023/03/13 10:25:40;;;;;;;8.20;3.10;;;15.90;99.90;;;;;;5090451;28;20058;-63
2023/03/13 10:28:12;;;;;;;8.80;3.33;;;15.80;99.90;;;;;;5090232;28;20387;-64
2023/03/13 10:30:45;;;;;;;8.80;3.17;;;15.80;99.90;;;;;;5090091;28;20058;-65
2023/03/13 10:36:00;;;;;;;9.55;2.90;;;16.20;99.90;;;;;;5110936;27;20185;-64
2023/03/13 10:38:26;;;;;;;9.57;2.72;;;17.00;99.90;;;;;;5109747;28;20032;-64
2023/03/13 10:40:57;;;;;;;8.02;3.08;;;16.60;99.90;;;;;;5110899;28;20027;-65
2023/03/13 10:43:25;;;;;;;4.55;2.45;;;16.10;99.90;;;;;;5110883;28;20093;-65
2023/03/13 10:45:51;;;;;;;10.30;3.50;;;16.60;99.90;;;;;;5110680;28;20034;-65
2023/03/13 10:48:21;;;;;;;7.40;3.17;;;16.70;99.90;;;;;;5110576;28;20020;-63
2023/03/13 10:50:49;;;;;;;4.45;2.45;;;16.10;99.90;;;;;;5130208;28;20055;-64
2023/03/13 10:53:35;;;;;;;7.13;2.72;;;16.00;99.90;;;;;;5131330;28;20106;-64
2023/03/13 10:56:19;;;;;;;8.38;3.25;;;;;;;;;;5131485;28;20019;-64
2023/03/13 10:58:50;;;;;;;7.22;2.90;;;17.40;99.90;;;;;;5131176;27;20026;-64
2023/03/13 11:01:22;;;;;;;6.03;3.25;;;17.50;99.90;;;;;;5129998;28;20015;-64
2023/03/13 11:03:49;;;;;;;5.35;2.70;;;17.40;99.90;;;;;;5130947;28;20023;-64
2023/03/13 11:06:32;;;;;;;3.60;2.28;;;17.40;99.90;;;;;;5130218;28;20026;-64
2023/03/13 11:09:15;;;;;;;3.85;2.45;;;17.10;99.90;;;;;;5130873;28;20027;-64
2023/03/13 11:11:52;;;;;;;5.38;2.50;;;16.90;99.90;;;;;;5089916;28;20150;-64
2023/03/13 11:14:22;;;;;;;7.45;2.33;;;16.90;99.90;;;;;;5104818;28;20106;-64
2023/03/13 11:16:52;;;;;;;4.18;2.30;;;17.10;99.90;;;;;;5108352;28;20052;-64
2023/03/13 11:19:33;;;;;;;4.55;2.42;;;17.10;99.90;;;;;;5107292;28;20024;-64
2023/03/13 11:22:15;;;;;;;3.95;2.33;;;17.00;99.90;;;;;;5109901;28;20031;-64
2023/03/13 11:24:53;;;;;;;6.15;2.00;;;16.90;99.90;;;;;;5108861;28;20025;-64
2023/03/13 11:27:30;;;;;;;3.80;1.80;;;16.90;99.90;;;;;;5109886;28;20043;-64
2023/03/13 11:30:32;;;;;;;2.45;1.65;;;17.40;99.90;;;;;;5109058;28;20027;-64
2023/03/13 11:33:07;;;;;;;2.55;1.58;;;17.50;99.90;;;;;;5109570;28;20028;-64
2023/03/13 11:35:42;;;;;;;4.07;1.70;;;17.60;99.90;;;;;;5108678;28;20039;-64
2023/03/13 11:38:18;;;;;;;4.75;1.80;;;17.50;99.90;;;;;;5096363;28;20070;-64
2023/03/13 11:41:12;;;;;;;5.55;1.77;;;17.60;99.90;;;;;;5108873;28;20067;-64
2023/03/13 11:43:51;;;;;;;4.15;1.95;;;17.60;99.90;;;;;;5089325;28;20020;-65
2023/03/13 11:46:30;;;;;;;5.03;1.77;;;17.40;99.90;;;;;;5081562;28;20376;-64
2023/03/13 11:49:36;;;;;;;1.73;1.15;;;17.60;99.90;;;;;;5075706;28;20070;-64
2023/03/13 11:52:13;;;;;;;2.67;1.50;;;;;;;;;;5085291;28;20478;-64
2023/03/13 11:55:06;;;;;;;2.38;1.42;;;18.00;99.90;;;;;;5094896;28;20032;-64
2023/03/13 11:57:51;;;;;;;2.72;1.48;;;18.00;99.90;;;;;;5080466;28;20032;-64
2023/03/13 12:00:27;;;;;;;2.78;1.50;;;17.90;99.90;;;;;;5083977;28;20024;-64
2023/03/13 12:03:16;;;;;;;3.08;1.50;;;18.00;99.90;;;;;;5094838;28;20026;-64
2023/03/13 12:05:49;;;;;;;2.15;1.13;;;17.80;99.90;;;;;;5095680;28;20454;-63
2023/03/13 12:08:20;;;;;;;1.27;1.02;;;17.80;99.90;;;;;;5094459;28;20052;-63
2023/03/13 12:11:00;;;;;;;3.92;1.40;;;17.80;99.90;;;;;;5094552;28;20070;-64
2023/03/13 12:13:34;;;;;;;2.47;1.20;;;17.60;99.90;;;;;;5074189;28;20474;-63
2023/03/13 12:16:06;;;;;;;2.05;1.23;;;17.80;99.90;;;;;;5074931;28;20025;-64
2023/03/13 12:18:37;;;;;;;2.78;1.40;;;17.90;99.90;;;;;;5094117;28;20039;-63
2023/03/13 12:21:16;;;;;;;2.10;1.13;;;17.60;99.90;;;;;;5094670;28;20051;-63
2023/03/13 12:23:52;;;;;;;2.85;1.23;;;17.80;99.90;;;;;;5093380;28;20077;-67
2023/03/13 12:26:20;;;;;;;2.58;1.15;;;18.00;99.90;;;;;;5091790;28;20016;-64
2023/03/13 12:29:26;;;;;;;4.15;1.30;;;18.10;99.90;;;;;;5087260;28;20063;-63
2023/03/13 12:32:01;;;;;;;2.13;1.20;;;18.10;99.90;;;;;;5106514;28;20022;-63
2023/03/13 12:35:07;;;;;;;1.95;0.90;;;17.90;99.90;;;;;;5111694;28;20083;-63
2023/03/13 12:37:44;;;;;;;2.92;1.00;;;18.10;99.90;;;;;;5095188;28;20028;-63
2023/03/13 12:40:36;;;;;;;3.00;1.00;;;18.10;99.90;;;;;;5095167;28;20024;-64
2023/03/13 12:43:11;;;;;;;4.60;1.13;;;18.40;99.90;;;;;;5102132;28;20078;-63
2023/03/13 12:46:02;;;;;;;6.07;1.00;;;18.40;99.90;;;;;;5115525;27;20027;-64
2023/03/13 12:48:58;;;;;;;1.92;0.82;;;18.30;99.90;;;;;;5104851;28;20030;-63
2023/03/13 12:51:46;;;;;;;2.25;0.80;;;18.10;99.90;;;;;;5094814;28;20050;-64
2023/03/13 12:54:31;;;;;;;1.88;0.77;;;18.10;99.90;;;;;;5094684;28;20046;-63
2023/03/13 12:57:07;;;;;;;9.05;1.58;;;18.40;99.90;;;;;;5094118;28;20080;-63
2023/03/13 12:59:38;;;;;;;6.50;0.80;;;18.00;99.90;;;;;;5094633;28;20469;-63
2023/03/13 13:02:22;;;;;;;1.35;1.00;;;17.90;99.90;;;;;;5094641;28;20016;-63
2023/03/13 13:04:49;;;;;;;;;;;17.80;99.90;;;;;;5094356;28;20024;-63
2023/03/13 13:07:23;;;;;;;3.08;0.90;;;17.90;99.90;;;;;;5094632;28;19939;-63